Pan Iris — 3EWB4 — position and weather

sailwx.info

Track history (hours):
 
Tides and Currents Weather Stations Pressure Air Temp Water Temp Dewpoint Dewpoint Depression Visibility Wind Speed Wind Dir Waves Ship Positions

Pan Iris

Last reported at 2018-Apr-19 19:18 UTC. Time now 2018-Apr-21 17:09 UTC.
Position S 32°30' E 152°58'.

Length 292 m; draft 15 m.

Type: Cargo ship. MMSI: 373143000.

Date/timePositionNaut miles runAvg speedWind from/ knotsBaromVisibWave heightAir tempDewpointWater temp
2018-Apr-19 19:18S 32°30' E 152°58'3 9.0
2018-Apr-19 19:00S 32°32' E 152°55'4 8.9
2018-Apr-19 18:30S 32°35' E 152°51'4 8.8
2018-Apr-19 18:00S 32°38' E 152°47'4 8.7
2018-Apr-19 17:30S 32°40' E 152°43'5 9.9
2018-Apr-19 17:00S 32°42' E 152°37'611.5
2018-Apr-19 16:30S 32°45' E 152°32'611.7
2018-Apr-19 16:00S 32°48' E 152°26'611.5
2018-Apr-19 15:30S 32°51' E 152°20'611.3
2018-Apr-19 15:00S 32°54' E 152°14'611.2
2018-Apr-19 14:30S 32°56' E 152°08'611.5
2018-Apr-19 14:00S 32°58' E 152°02'611.2
2018-Apr-19 13:29S 32°60' E 151°55'5 9.9
2018-Apr-19 13:00S 32°57' E 151°50'3 6.2
2018-Apr-19 12:30S 32°55' E 151°47'1 3.0
2018-Apr-19 12:00S 32°54' E 151°46'1 2.4
2018-Apr-19 11:28S 32°53' E 151°45'0 0.0
2018-Apr-19 10:58S 32°53' E 151°45'0 0.0
2018-Apr-19 10:28S 32°53' E 151°45'0 0.0
2018-Apr-19 09:58S 32°53' E 151°45'0 0.0
2018-Apr-19 09:28S 32°53' E 151°45'0 0.0
2018-Apr-19 08:58S 32°53' E 151°45'0 0.0
2018-Apr-19 08:28S 32°53' E 151°45'0 0.0
2018-Apr-19 07:58S 32°53' E 151°45'0 0.0
2018-Apr-19 07:28S 32°53' E 151°45'0 0.0
2018-Apr-19 06:58S 32°53' E 151°45'0 0.0
2018-Apr-19 06:28S 32°53' E 151°45'0 0.0
2018-Apr-19 05:58S 32°53' E 151°45'0 0.0
2018-Apr-19 05:28S 32°53' E 151°45'0 0.0
2018-Apr-19 04:58S 32°53' E 151°45'0 0.0
2018-Apr-19 04:28S 32°53' E 151°45'0 0.0
2018-Apr-19 03:58S 32°53' E 151°45'0 0.0
2018-Apr-19 03:28S 32°53' E 151°45'0 0.0
2018-Apr-19 02:58S 32°53' E 151°45'0 0.0
2018-Apr-19 02:28S 32°53' E 151°45'0 0.0
2018-Apr-19 01:58S 32°53' E 151°45'0 0.0
2018-Apr-19 01:28S 32°53' E 151°45'0 0.0
2018-Apr-19 00:58S 32°53' E 151°45'0 0.0
2018-Apr-19 00:28S 32°53' E 151°45'0 0.0
2018-Apr-18 23:58S 32°53' E 151°45'0 0.0
2018-Apr-18 23:28S 32°53' E 151°45'0 0.0
2018-Apr-18 22:58S 32°53' E 151°45'0 0.0
2018-Apr-18 22:28S 32°53' E 151°45'0 0.0
2018-Apr-18 21:58S 32°53' E 151°45'0 0.0
2018-Apr-18 21:28S 32°53' E 151°45'0 0.0
2018-Apr-18 20:58S 32°53' E 151°45'0 0.0
2018-Apr-18 20:28S 32°53' E 151°45'0 0.0
2018-Apr-18 19:58S 32°53' E 151°45'0 0.0
2018-Apr-18 19:28S 32°53' E 151°45'0 0.0
2018-Apr-18 18:58S 32°53' E 151°45'0 0.0
2018-Apr-18 18:28S 32°53' E 151°45'0 0.0
2018-Apr-18 17:58S 32°53' E 151°45'0 0.0
2018-Apr-18 17:28S 32°53' E 151°45'0 0.0
2018-Apr-18 16:58S 32°53' E 151°45'0 0.0
2018-Apr-18 16:28S 32°53' E 151°45'0 0.0
2018-Apr-18 15:58S 32°53' E 151°45'0 0.0
2018-Apr-18 15:28S 32°53' E 151°45'0 0.0
2018-Apr-18 14:58S 32°53' E 151°45'0 0.0
2018-Apr-18 14:28S 32°53' E 151°45'0 0.0
2018-Apr-18 13:58S 32°53' E 151°45'0 0.0
2018-Apr-18 13:28S 32°53' E 151°45'0 0.0
2018-Apr-18 12:58S 32°53' E 151°45'0 0.0
2018-Apr-18 12:28S 32°53' E 151°45'0 0.0
2018-Apr-18 11:58S 32°53' E 151°45'0 0.0
2018-Apr-18 11:28S 32°53' E 151°45'0 0.0
2018-Apr-18 10:58S 32°53' E 151°45'0 0.0
2018-Apr-18 10:28S 32°53' E 151°45'0 0.0
2018-Apr-18 09:58S 32°53' E 151°45'0 0.0
2018-Apr-18 09:28S 32°53' E 151°45'0 0.0
2018-Apr-18 08:58S 32°53' E 151°45'0 0.0
2018-Apr-18 08:25S 32°53' E 151°45'0 0.0
2018-Apr-18 07:58S 32°53' E 151°45'0 0.0
2018-Apr-18 07:28S 32°53' E 151°45'0 0.0
2018-Apr-18 06:58S 32°53' E 151°45'0 0.0
2018-Apr-18 06:28S 32°53' E 151°45'0 0.0
2018-Apr-18 05:58S 32°53' E 151°45'0 0.0
2018-Apr-18 05:28S 32°53' E 151°45'0 0.0
2018-Apr-18 04:55S 32°53' E 151°45'0 0.0
2018-Apr-18 04:28S 32°53' E 151°45'0 0.0
2018-Apr-18 03:58S 32°53' E 151°45'0 0.0
2018-Apr-18 03:28S 32°53' E 151°45'0 0.0
2018-Apr-18 02:58S 32°53' E 151°45'0 0.0
2018-Apr-18 02:28S 32°53' E 151°45'0 0.0
2018-Apr-18 01:58S 32°53' E 151°45'0 0.0
2018-Apr-18 01:28S 32°53' E 151°45'0 0.0
2018-Apr-18 00:58S 32°53' E 151°45'0 0.0
2018-Apr-18 00:28S 32°53' E 151°45'0 0.0
2018-Apr-17 23:58S 32°53' E 151°45'0 0.0
2018-Apr-17 23:28S 32°53' E 151°45'0 0.0
2018-Apr-17 22:58S 32°53' E 151°45'0 0.0
2018-Apr-17 22:28S 32°53' E 151°45'0 0.0
2018-Apr-17 21:58S 32°53' E 151°45'0 0.0
2018-Apr-17 21:28S 32°53' E 151°45'0 0.0
2018-Apr-17 20:58S 32°53' E 151°45'0 0.0
2018-Apr-17 20:28S 32°53' E 151°45'0 0.0
2018-Apr-17 19:58S 32°53' E 151°45'0 0.0
2018-Apr-17 19:28S 32°53' E 151°45'0 0.0
2018-Apr-17 18:58S 32°53' E 151°45'0 0.0
2018-Apr-17 18:28S 32°53' E 151°45'0 0.0
2018-Apr-17 17:58S 32°53' E 151°45'0 0.0
2018-Apr-17 17:28S 32°53' E 151°45'0 0.0
2018-Apr-17 16:58S 32°53' E 151°45'0 0.0
2018-Apr-17 16:28S 32°53' E 151°45'0 0.0
2018-Apr-17 15:58S 32°53' E 151°45'0 0.0
2018-Apr-17 15:28S 32°53' E 151°45'0 0.0
2018-Apr-17 14:58S 32°53' E 151°45'0 0.0
2018-Apr-17 14:28S 32°53' E 151°45'0 0.0
2018-Apr-17 13:58S 32°53' E 151°45'0 0.0
2018-Apr-17 13:28S 32°53' E 151°45'0 0.0
2018-Apr-17 12:58S 32°53' E 151°45'0 0.0
2018-Apr-17 12:28S 32°53' E 151°45'0 0.0
2018-Apr-17 11:58S 32°53' E 151°45'0 0.0
2018-Apr-17 11:28S 32°53' E 151°45'0 0.0
2018-Apr-17 10:58S 32°53' E 151°45'0 0.0
2018-Apr-17 10:28S 32°53' E 151°45'0 0.0
2018-Apr-17 09:58S 32°53' E 151°45'0 0.0
2018-Apr-17 09:28S 32°53' E 151°45'0 0.0
2018-Apr-17 08:58S 32°53' E 151°45'0 0.0
2018-Apr-17 08:28S 32°53' E 151°45'0 0.0
2018-Apr-17 07:58S 32°53' E 151°45'0 0.0
2018-Apr-17 07:28S 32°53' E 151°45'0 0.0
2018-Apr-17 06:58S 32°53' E 151°45'0 0.0
2018-Apr-17 06:28S 32°53' E 151°45'0 0.0
2018-Apr-17 05:58S 32°53' E 151°45'0 0.0
2018-Apr-17 05:28S 32°53' E 151°45'0 0.0
2018-Apr-17 04:58S 32°53' E 151°45'0 0.0
2018-Apr-17 04:30S 32°53' E 151°45'0 0.8
2018-Apr-17 04:00S 32°53' E 151°46'1 3.0
2018-Apr-17 03:30S 32°55' E 151°46'3 6.9
2018-Apr-17 03:00S 32°55' E 151°50'4 8.9
2018-Apr-17 02:30S 32°60' E 151°53'3 5.7
2018-Apr-17 01:59S 33°01' E 151°49'0 0.1
2018-Apr-17 01:30S 33°01' E 151°49'0 0.1
2018-Apr-17 01:00S 33°01' E 151°49'0 0.1
2018-Apr-17 00:30S 33°01' E 151°49'0 0.0
2018-Apr-17 00:00S 33°01' E 151°49'0 0.0
2018-Apr-16 23:30S 33°01' E 151°49'0 0.0
2018-Apr-16 23:00S 33°01' E 151°49'0 0.0
2018-Apr-16 22:30S 33°01' E 151°49'0 0.2
2018-Apr-16 22:00S 33°01' E 151°49'0 0.1
2018-Apr-16 21:30S 33°01' E 151°49'0 0.1
2018-Apr-16 21:00S 33°01' E 151°49'0 0.0
2018-Apr-16 20:30S 33°01' E 151°49'0 0.1
2018-Apr-16 20:00S 33°01' E 151°50'0 0.1
2018-Apr-16 19:30S 33°01' E 151°49'0 0.0
2018-Apr-16 19:00S 33°01' E 151°49'0 0.0
2018-Apr-16 18:30S 33°01' E 151°49'0 0.1
2018-Apr-16 17:51S 33°01' E 151°50'0 0.1
2018-Apr-16 17:30S 33°01' E 151°50'0 0.1
2018-Apr-16 15:54S 33°01' E 151°50'0 0.0
2018-Apr-16 15:12S 33°01' E 151°50'0 0.3
2018-Apr-16 15:00S 33°01' E 151°50'0 0.0
2018-Apr-16 14:30S 33°01' E 151°50'0 0.0
2018-Apr-16 13:57S 33°01' E 151°50'0 0.0
2018-Apr-16 13:27S 33°01' E 151°50'0 0.1
2018-Apr-16 13:00S 33°01' E 151°50'0 0.0
2018-Apr-16 12:30S 33°01' E 151°50'0 0.1
2018-Apr-16 11:48S 33°01' E 151°50'0 0.0
2018-Apr-16 11:27S 33°01' E 151°50'0 0.1
2018-Apr-16 11:00S 33°01' E 151°50'0 0.1
2018-Apr-16 10:30S 33°01' E 151°49'0 0.1
2018-Apr-16 10:00S 33°01' E 151°50'0 0.1
2018-Apr-16 09:30S 33°01' E 151°49'0 0.0
2018-Apr-16 09:00S 33°01' E 151°49'0 0.1
2018-Apr-16 08:30S 33°01' E 151°50'0 0.0
2018-Apr-16 08:00S 33°01' E 151°50'0 0.0
2018-Apr-16 02:06S 33°01' E 151°50'0 0.6
2018-Apr-16 02:00S 33°01' E 151°50'0 0.0
2018-Apr-16 01:27S 33°01' E 151°50'0 0.1
2018-Apr-16 01:00S 33°01' E 151°50'0 0.0
2018-Apr-16 00:30S 33°01' E 151°50'0 0.0
2018-Apr-16 00:00S 33°01' E 151°50'0 0.2
2018-Apr-15 22:58S 33°01' E 151°50'1 1.4
2018-Apr-15 22:30S 33°01' E 151°50'2 4.3
2018-Apr-15 22:00S 33°01' E 151°53'3 6.1
2018-Apr-15 21:29S 33°00' E 151°56'3 6.3
2018-Apr-15 21:00S 32°59' E 151°60'5 9.2
2018-Apr-15 20:30S 32°58' E 152°05'612.4
2018-Apr-15 20:00S 32°56' E 152°12'612.3
2018-Apr-15 19:30S 32°53' E 152°18'611.9
2018-Apr-15 19:00S 32°49' E 152°24'612.4
2018-Apr-15 18:30S 32°46' E 152°30'612.3
2018-Apr-15 18:00S 32°43' E 152°37'612.9
2018-Apr-15 17:30S 32°41' E 152°44'713.4
2018-Apr-15 17:00S 32°37' E 152°51'713.2
2018-Apr-15 16:30S 32°33' E 152°57'  
Track history (hours):
 
Tides and Currents Weather Stations Pressure Air Temp Water Temp Dewpoint Dewpoint Depression Visibility Wind Speed Wind Dir Waves Ship Positions

Pan Iris

Last reported at 2018-Apr-19 19:18 UTC. Time now 2018-Apr-21 17:09 UTC.
Position S 32°30' E 152°58'.

Length 292 m; draft 15 m.

Type: Cargo ship. MMSI: 373143000.

Date/timePositionNaut miles runAvg speedWind from/ knotsBaromVisibWave heightAir tempDewpointWater temp
2018-Apr-19 19:18S 32°30' E 152°58'3 9.0
2018-Apr-19 19:00S 32°32' E 152°55'4 8.9
2018-Apr-19 18:30S 32°35' E 152°51'4 8.8
2018-Apr-19 18:00S 32°38' E 152°47'4 8.7
2018-Apr-19 17:30S 32°40' E 152°43'5 9.9
2018-Apr-19 17:00S 32°42' E 152°37'611.5
2018-Apr-19 16:30S 32°45' E 152°32'611.7
2018-Apr-19 16:00S 32°48' E 152°26'611.5
2018-Apr-19 15:30S 32°51' E 152°20'611.3
2018-Apr-19 15:00S 32°54' E 152°14'611.2
2018-Apr-19 14:30S 32°56' E 152°08'611.5
2018-Apr-19 14:00S 32°58' E 152°02'611.2
2018-Apr-19 13:29S 32°60' E 151°55'5 9.9
2018-Apr-19 13:00S 32°57' E 151°50'3 6.2
2018-Apr-19 12:30S 32°55' E 151°47'1 3.0
2018-Apr-19 12:00S 32°54' E 151°46'1 2.4
2018-Apr-19 11:28S 32°53' E 151°45'0 0.0
2018-Apr-19 10:58S 32°53' E 151°45'0 0.0
2018-Apr-19 10:28S 32°53' E 151°45'0 0.0
2018-Apr-19 09:58S 32°53' E 151°45'0 0.0
2018-Apr-19 09:28S 32°53' E 151°45'0 0.0
2018-Apr-19 08:58S 32°53' E 151°45'0 0.0
2018-Apr-19 08:28S 32°53' E 151°45'0 0.0
2018-Apr-19 07:58S 32°53' E 151°45'0 0.0
2018-Apr-19 07:28S 32°53' E 151°45'0 0.0
2018-Apr-19 06:58S 32°53' E 151°45'0 0.0
2018-Apr-19 06:28S 32°53' E 151°45'0 0.0
2018-Apr-19 05:58S 32°53' E 151°45'0 0.0
2018-Apr-19 05:28S 32°53' E 151°45'0 0.0
2018-Apr-19 04:58S 32°53' E 151°45'0 0.0
2018-Apr-19 04:28S 32°53' E 151°45'0 0.0
2018-Apr-19 03:58S 32°53' E 151°45'0 0.0
2018-Apr-19 03:28S 32°53' E 151°45'0 0.0
2018-Apr-19 02:58S 32°53' E 151°45'0 0.0
2018-Apr-19 02:28S 32°53' E 151°45'0 0.0
2018-Apr-19 01:58S 32°53' E 151°45'0 0.0
2018-Apr-19 01:28S 32°53' E 151°45'0 0.0
2018-Apr-19 00:58S 32°53' E 151°45'0 0.0
2018-Apr-19 00:28S 32°53' E 151°45'0 0.0
2018-Apr-18 23:58S 32°53' E 151°45'0 0.0
2018-Apr-18 23:28S 32°53' E 151°45'0 0.0
2018-Apr-18 22:58S 32°53' E 151°45'0 0.0
2018-Apr-18 22:28S 32°53' E 151°45'0 0.0
2018-Apr-18 21:58S 32°53' E 151°45'0 0.0
2018-Apr-18 21:28S 32°53' E 151°45'0 0.0
2018-Apr-18 20:58S 32°53' E 151°45'0 0.0
2018-Apr-18 20:28S 32°53' E 151°45'0 0.0
2018-Apr-18 19:58S 32°53' E 151°45'0 0.0
2018-Apr-18 19:28S 32°53' E 151°45'0 0.0
2018-Apr-18 18:58S 32°53' E 151°45'0 0.0
2018-Apr-18 18:28S 32°53' E 151°45'0 0.0
2018-Apr-18 17:58S 32°53' E 151°45'0 0.0
2018-Apr-18 17:28S 32°53' E 151°45'0 0.0
2018-Apr-18 16:58S 32°53' E 151°45'0 0.0
2018-Apr-18 16:28S 32°53' E 151°45'0 0.0
2018-Apr-18 15:58S 32°53' E 151°45'0 0.0
2018-Apr-18 15:28S 32°53' E 151°45'0 0.0
2018-Apr-18 14:58S 32°53' E 151°45'0 0.0
2018-Apr-18 14:28S 32°53' E 151°45'0 0.0
2018-Apr-18 13:58S 32°53' E 151°45'0 0.0
2018-Apr-18 13:28S 32°53' E 151°45'0 0.0
2018-Apr-18 12:58S 32°53' E 151°45'0 0.0
2018-Apr-18 12:28S 32°53' E 151°45'0 0.0
2018-Apr-18 11:58S 32°53' E 151°45'0 0.0
2018-Apr-18 11:28S 32°53' E 151°45'0 0.0
2018-Apr-18 10:58S 32°53' E 151°45'0 0.0
2018-Apr-18 10:28S 32°53' E 151°45'0 0.0
2018-Apr-18 09:58S 32°53' E 151°45'0 0.0
2018-Apr-18 09:28S 32°53' E 151°45'0 0.0
2018-Apr-18 08:58S 32°53' E 151°45'0 0.0
2018-Apr-18 08:25S 32°53' E 151°45'0 0.0
2018-Apr-18 07:58S 32°53' E 151°45'0 0.0
2018-Apr-18 07:28S 32°53' E 151°45'0 0.0
2018-Apr-18 06:58S 32°53' E 151°45'0 0.0
2018-Apr-18 06:28S 32°53' E 151°45'0 0.0
2018-Apr-18 05:58S 32°53' E 151°45'0 0.0
2018-Apr-18 05:28S 32°53' E 151°45'0 0.0
2018-Apr-18 04:55S 32°53' E 151°45'0 0.0
2018-Apr-18 04:28S 32°53' E 151°45'0 0.0
2018-Apr-18 03:58S 32°53' E 151°45'0 0.0
2018-Apr-18 03:28S 32°53' E 151°45'0 0.0
2018-Apr-18 02:58S 32°53' E 151°45'0 0.0
2018-Apr-18 02:28S 32°53' E 151°45'0 0.0
2018-Apr-18 01:58S 32°53' E 151°45'0 0.0
2018-Apr-18 01:28S 32°53' E 151°45'0 0.0
2018-Apr-18 00:58S 32°53' E 151°45'0 0.0
2018-Apr-18 00:28S 32°53' E 151°45'0 0.0
2018-Apr-17 23:58S 32°53' E 151°45'0 0.0
2018-Apr-17 23:28S 32°53' E 151°45'0 0.0
2018-Apr-17 22:58S 32°53' E 151°45'0 0.0
2018-Apr-17 22:28S 32°53' E 151°45'0 0.0
2018-Apr-17 21:58S 32°53' E 151°45'0 0.0
2018-Apr-17 21:28S 32°53' E 151°45'0 0.0
2018-Apr-17 20:58S 32°53' E 151°45'0 0.0
2018-Apr-17 20:28S 32°53' E 151°45'0 0.0
2018-Apr-17 19:58S 32°53' E 151°45'0 0.0
2018-Apr-17 19:28S 32°53' E 151°45'0 0.0
2018-Apr-17 18:58S 32°53' E 151°45'0 0.0
2018-Apr-17 18:28S 32°53' E 151°45'0 0.0
2018-Apr-17 17:58S 32°53' E 151°45'0 0.0
2018-Apr-17 17:28S 32°53' E 151°45'0 0.0
2018-Apr-17 16:58S 32°53' E 151°45'0 0.0
2018-Apr-17 16:28S 32°53' E 151°45'0 0.0
2018-Apr-17 15:58S 32°53' E 151°45'0 0.0
2018-Apr-17 15:28S 32°53' E 151°45'0 0.0
2018-Apr-17 14:58S 32°53' E 151°45'0 0.0
2018-Apr-17 14:28S 32°53' E 151°45'0 0.0
2018-Apr-17 13:58S 32°53' E 151°45'0 0.0
2018-Apr-17 13:28S 32°53' E 151°45'0 0.0
2018-Apr-17 12:58S 32°53' E 151°45'0 0.0
2018-Apr-17 12:28S 32°53' E 151°45'0 0.0
2018-Apr-17 11:58S 32°53' E 151°45'0 0.0
2018-Apr-17 11:28S 32°53' E 151°45'0 0.0
2018-Apr-17 10:58S 32°53' E 151°45'0 0.0
2018-Apr-17 10:28S 32°53' E 151°45'0 0.0
2018-Apr-17 09:58S 32°53' E 151°45'0 0.0
2018-Apr-17 09:28S 32°53' E 151°45'0 0.0
2018-Apr-17 08:58S 32°53' E 151°45'0 0.0
2018-Apr-17 08:28S 32°53' E 151°45'0 0.0
2018-Apr-17 07:58S 32°53' E 151°45'0 0.0
2018-Apr-17 07:28S 32°53' E 151°45'0 0.0
2018-Apr-17 06:58S 32°53' E 151°45'0 0.0
2018-Apr-17 06:28S 32°53' E 151°45'0 0.0
2018-Apr-17 05:58S 32°53' E 151°45'0 0.0
2018-Apr-17 05:28S 32°53' E 151°45'0 0.0
2018-Apr-17 04:58S 32°53' E 151°45'0 0.0
2018-Apr-17 04:30S 32°53' E 151°45'0 0.8
2018-Apr-17 04:00S 32°53' E 151°46'1 3.0
2018-Apr-17 03:30S 32°55' E 151°46'3 6.9
2018-Apr-17 03:00S 32°55' E 151°50'4 8.9
2018-Apr-17 02:30S 32°60' E 151°53'3 5.7
2018-Apr-17 01:59S 33°01' E 151°49'0 0.1
2018-Apr-17 01:30S 33°01' E 151°49'0 0.1
2018-Apr-17 01:00S 33°01' E 151°49'0 0.1
2018-Apr-17 00:30S 33°01' E 151°49'0 0.0
2018-Apr-17 00:00S 33°01' E 151°49'0 0.0
2018-Apr-16 23:30S 33°01' E 151°49'0 0.0
2018-Apr-16 23:00S 33°01' E 151°49'0 0.0
2018-Apr-16 22:30S 33°01' E 151°49'0 0.2
2018-Apr-16 22:00S 33°01' E 151°49'0 0.1
2018-Apr-16 21:30S 33°01' E 151°49'0 0.1
2018-Apr-16 21:00S 33°01' E 151°49'0 0.0
2018-Apr-16 20:30S 33°01' E 151°49'0 0.1
2018-Apr-16 20:00S 33°01' E 151°50'0 0.1
2018-Apr-16 19:30S 33°01' E 151°49'0 0.0
2018-Apr-16 19:00S 33°01' E 151°49'0 0.0
2018-Apr-16 18:30S 33°01' E 151°49'0 0.1
2018-Apr-16 17:51S 33°01' E 151°50'0 0.1
2018-Apr-16 17:30S 33°01' E 151°50'0 0.1
2018-Apr-16 15:54S 33°01' E 151°50'0 0.0
2018-Apr-16 15:12S 33°01' E 151°50'0 0.3
2018-Apr-16 15:00S 33°01' E 151°50'0 0.0
2018-Apr-16 14:30S 33°01' E 151°50'0 0.0
2018-Apr-16 13:57S 33°01' E 151°50'0 0.0
2018-Apr-16 13:27S 33°01' E 151°50'0 0.1
2018-Apr-16 13:00S 33°01' E 151°50'0 0.0
2018-Apr-16 12:30S 33°01' E 151°50'0 0.1
2018-Apr-16 11:48S 33°01' E 151°50'0 0.0
2018-Apr-16 11:27S 33°01' E 151°50'0 0.1
2018-Apr-16 11:00S 33°01' E 151°50'0 0.1
2018-Apr-16 10:30S 33°01' E 151°49'0 0.1
2018-Apr-16 10:00S 33°01' E 151°50'0 0.1
2018-Apr-16 09:30S 33°01' E 151°49'0 0.0
2018-Apr-16 09:00S 33°01' E 151°49'0 0.1
2018-Apr-16 08:30S 33°01' E 151°50'0 0.0
2018-Apr-16 08:00S 33°01' E 151°50'0 0.0
2018-Apr-16 02:06S 33°01' E 151°50'0 0.6
2018-Apr-16 02:00S 33°01' E 151°50'0 0.0
2018-Apr-16 01:27S 33°01' E 151°50'0 0.1
2018-Apr-16 01:00S 33°01' E 151°50'0 0.0
2018-Apr-16 00:30S 33°01' E 151°50'0 0.0
2018-Apr-16 00:00S 33°01' E 151°50'0 0.2
2018-Apr-15 22:58S 33°01' E 151°50'1 1.4
2018-Apr-15 22:30S 33°01' E 151°50'2 4.3
2018-Apr-15 22:00S 33°01' E 151°53'3 6.1
2018-Apr-15 21:29S 33°00' E 151°56'3 6.3
2018-Apr-15 21:00S 32°59' E 151°60'5 9.2
2018-Apr-15 20:30S 32°58' E 152°05'612.4
2018-Apr-15 20:00S 32°56' E 152°12'612.3
2018-Apr-15 19:30S 32°53' E 152°18'611.9
2018-Apr-15 19:00S 32°49' E 152°24'612.4
2018-Apr-15 18:30S 32°46' E 152°30'612.3
2018-Apr-15 18:00S 32°43' E 152°37'612.9
2018-Apr-15 17:30S 32°41' E 152°44'713.4
2018-Apr-15 17:00S 32°37' E 152°51'713.2
2018-Apr-15 16:30S 32°33' E 152°57'  

Dump ship's entire track history